Ridgefield, Washington
Current Conditions -  °F | °C
As of 4:53 PM on Saturday 25 Oct 2014 (Local Time) from KSPB Reporting Station
Overcast Overcast  
Wind Chill: 59°   Ceiling: 2100
Heat Index: 59°   Visibility: 10mi
Dew Point: 54°   Wind: 12mph
Humidity: 83%   Direction: 160°SSE
Pressure: 29.4"   Gusts: 33mph
Location:  45.82°N, 122.74°W
Report Text: KSPB 252353Z AUTO 16010G29KT 10SM BKN021 OVC027 15/12 A2940 RMK AO2 PK WND 16029/2345 RAE44 SLP954 P0006 60009 T01500122 10172 20122 53014
Loading
Personal Weather Stations






























Interactive Weather Map
Tropical Storm Tracking
New forecast layout! Learn more

10-Day Weather Forecast

Advertisements
Track Severe Weather on mobile